Huvudsida
METAR-TAF:

METAR-TAF

Flygplatser :

Sogndals flygplats. Haukåsen

Sogndals, Norge

latitud: 61-09N, longitud: 007-08E, höjd: 49 m

Aktuellt väderrapport

Denna rapport gjordes för 44 minuter sedan, klockan 09:20 UTC
Vind 13 kt från väst/sydväst
Temperatur 3°C
Fuktighet 81%
Tryck 1014 hPa
Sikt 10 km eller mer
Få moln på en höjd av 1400 ft
Få moln på en höjd av 3000 ft, Högtornande cumulus.
Spridda moln på en höjd av 3000 ft
skurar i närheten

METAR: ENSG 200920Z 24013KT 9999 VCSH FEW014 FEW030TCU SCT030 03/M00 Q1014 RMK WIND 3806FT 28036G47KT

Tid: 11:04 (10:04 UTC)


TAF: saknas

Aktuella väderrapporter och prognoser från 4000 flygplatser (METAR- och TAF-rapporter).

De tillgängliga stationerna syns som gula och röda prickar på kartan.

För musen över prickarna för att se namnen på stationerna.

Klicka sedan för att få väderrapporter och prognoser.

För att ändra kartan: Klicka på de gröna knapparna med ett svart kors på för att zooma in; den gröna knappen med ett streck på för att zooma ut; eller på de gröna pilarna för angränsande kartor.


METAR-TAF: